sensor_id;sensor_type;location;lat;lon;timestamp;P1;durP1;ratioP1;P2;durP2;ratioP2
62338;SDS011;48368;53.406;6.214;2022-12-13T00:01:17;73.40;;;27.63;;
62338;SDS011;48368;53.406;6.214;2022-12-13T00:03:43;69.30;;;30.15;;
62338;SDS011;48368;53.406;6.214;2022-12-13T00:06:09;62.13;;;27.52;;
62338;SDS011;48368;53.406;6.214;2022-12-13T00:08:36;62.88;;;26.08;;
62338;SDS011;48368;53.406;6.214;2022-12-13T00:11:03;61.42;;;26.60;;
62338;SDS011;48368;53.406;6.214;2022-12-13T00:13:31;58.03;;;25.85;;
62338;SDS011;48368;53.406;6.214;2022-12-13T00:15:58;62.90;;;27.15;;
62338;SDS011;48368;53.406;6.214;2022-12-13T00:18:25;57.95;;;26.08;;
62338;SDS011;48368;53.406;6.214;2022-12-13T00:20:51;67.45;;;28.90;;
62338;SDS011;48368;53.406;6.214;2022-12-13T00:23:20;60.25;;;25.85;;
62338;SDS011;48368;53.406;6.214;2022-12-13T00:25:47;68.40;;;29.92;;
62338;SDS011;48368;53.406;6.214;2022-12-13T00:28:12;61.97;;;27.63;;
62338;SDS011;48368;53.406;6.214;2022-12-13T00:30:39;59.17;;;26.80;;
62338;SDS011;48368;53.406;6.214;2022-12-13T00:33:05;59.80;;;27.35;;
62338;SDS011;48368;53.406;6.214;2022-12-13T00:35:31;60.75;;;26.90;;
62338;SDS011;48368;53.406;6.214;2022-12-13T00:37:57;60.25;;;26.27;;
62338;SDS011;48368;53.406;6.214;2022-12-13T00:40:23;54.60;;;25.80;;
62338;SDS011;48368;53.406;6.214;2022-12-13T00:42:49;61.78;;;26.65;;
62338;SDS011;48368;53.406;6.214;2022-12-13T00:45:15;59.17;;;26.52;;
62338;SDS011;48368;53.406;6.214;2022-12-13T00:47:40;63.95;;;27.20;;
62338;SDS011;48368;53.406;6.214;2022-12-13T00:50:06;62.35;;;27.40;;
62338;SDS011;48368;53.406;6.214;2022-12-13T00:52:32;59.67;;;27.20;;
62338;SDS011;48368;53.406;6.214;2022-12-13T00:54:58;60.00;;;25.50;;
62338;SDS011;48368;53.406;6.214;2022-12-13T00:57:24;61.13;;;26.38;;
62338;SDS011;48368;53.406;6.214;2022-12-13T00:59:51;57.63;;;24.45;;
62338;SDS011;48368;53.406;6.214;2022-12-13T01:02:16;60.72;;;27.70;;
62338;SDS011;48368;53.406;6.214;2022-12-13T01:04:42;52.15;;;24.95;;
62338;SDS011;48368;53.406;6.214;2022-12-13T01:07:08;57.58;;;25.75;;
62338;SDS011;48368;53.406;6.214;2022-12-13T01:09:33;61.45;;;27.83;;
62338;SDS011;48368;53.406;6.214;2022-12-13T01:12:00;63.38;;;28.42;;
62338;SDS011;48368;53.406;6.214;2022-12-13T01:14:30;59.75;;;26.35;;
62338;SDS011;48368;53.406;6.214;2022-12-13T01:16:58;59.72;;;26.35;;
62338;SDS011;48368;53.406;6.214;2022-12-13T01:19:25;60.75;;;26.73;;
62338;SDS011;48368;53.406;6.214;2022-12-13T01:21:59;54.03;;;26.65;;
62338;SDS011;48368;53.406;6.214;2022-12-13T01:24:26;59.42;;;25.63;;
62338;SDS011;48368;53.406;6.214;2022-12-13T01:26:53;61.88;;;25.98;;
62338;SDS011;48368;53.406;6.214;2022-12-13T01:29:19;55.47;;;25.63;;
62338;SDS011;48368;53.406;6.214;2022-12-13T01:31:45;58.30;;;27.92;;
62338;SDS011;48368;53.406;6.214;2022-12-13T01:34:13;59.17;;;27.13;;
62338;SDS011;48368;53.406;6.214;2022-12-13T01:36:41;56.85;;;25.73;;
62338;SDS011;48368;53.406;6.214;2022-12-13T01:39:09;57.97;;;26.58;;
62338;SDS011;48368;53.406;6.214;2022-12-13T01:41:36;57.60;;;26.55;;
62338;SDS011;48368;53.406;6.214;2022-12-13T01:44:03;55.80;;;26.60;;
62338;SDS011;48368;53.406;6.214;2022-12-13T01:46:48;56.92;;;26.33;;
62338;SDS011;48368;53.406;6.214;2022-12-13T01:49:14;54.05;;;25.75;;
62338;SDS011;48368;53.406;6.214;2022-12-13T01:51:43;56.22;;;24.73;;
62338;SDS011;48368;53.406;6.214;2022-12-13T01:54:18;54.65;;;23.92;;
62338;SDS011;48368;53.406;6.214;2022-12-13T01:56:50;57.35;;;25.63;;
62338;SDS011;48368;53.406;6.214;2022-12-13T01:59:18;56.30;;;24.60;;
62338;SDS011;48368;53.406;6.214;2022-12-13T02:01:45;54.60;;;24.27;;
62338;SDS011;48368;53.406;6.214;2022-12-13T02:04:12;52.58;;;26.08;;
62338;SDS011;48368;53.406;6.214;2022-12-13T02:06:42;53.20;;;25.00;;
62338;SDS011;48368;53.406;6.214;2022-12-13T02:09:09;60.80;;;27.10;;
62338;SDS011;48368;53.406;6.214;2022-12-13T02:11:36;53.88;;;26.23;;
62338;SDS011;48368;53.406;6.214;2022-12-13T02:14:04;54.95;;;26.02;;
62338;SDS011;48368;53.406;6.214;2022-12-13T02:24:51;48.55;;;24.65;;
62338;SDS011;48368;53.406;6.214;2022-12-13T02:35:58;55.17;;;24.80;;
62338;SDS011;48368;53.406;6.214;2022-12-13T02:40:59;54.38;;;26.15;;
62338;SDS011;48368;53.406;6.214;2022-12-13T02:46:42;54.47;;;24.85;;
62338;SDS011;48368;53.406;6.214;2022-12-13T02:49:15;54.40;;;25.08;;
62338;SDS011;48368;53.406;6.214;2022-12-13T02:51:41;52.60;;;24.20;;
62338;SDS011;48368;53.406;6.214;2022-12-13T02:54:08;54.80;;;25.25;;
62338;SDS011;48368;53.406;6.214;2022-12-13T02:56:34;50.78;;;24.63;;
62338;SDS011;48368;53.406;6.214;2022-12-13T02:59:00;49.70;;;23.30;;
62338;SDS011;48368;53.406;6.214;2022-12-13T03:01:33;53.58;;;24.02;;
62338;SDS011;48368;53.406;6.214;2022-12-13T03:06:38;50.78;;;23.17;;
62338;SDS011;48368;53.406;6.214;2022-12-13T03:09:35;57.90;;;24.08;;
62338;SDS011;48368;53.406;6.214;2022-12-13T03:12:17;60.83;;;25.67;;
62338;SDS011;48368;53.406;6.214;2022-12-13T03:17:40;49.65;;;21.98;;
62338;SDS011;48368;53.406;6.214;2022-12-13T03:20:27;56.45;;;24.60;;
62338;SDS011;48368;53.406;6.214;2022-12-13T03:22:54;50.67;;;23.63;;
62338;SDS011;48368;53.406;6.214;2022-12-13T03:25:21;55.88;;;25.23;;
62338;SDS011;48368;53.406;6.214;2022-12-13T03:27:48;55.08;;;25.10;;
62338;SDS011;48368;53.406;6.214;2022-12-13T03:30:14;56.72;;;25.40;;
62338;SDS011;48368;53.406;6.214;2022-12-13T03:32:40;52.88;;;23.48;;
62338;SDS011;48368;53.406;6.214;2022-12-13T03:35:05;49.00;;;23.60;;
62338;SDS011;48368;53.406;6.214;2022-12-13T03:37:31;55.78;;;26.33;;
62338;SDS011;48368;53.406;6.214;2022-12-13T03:39:57;56.72;;;26.33;;
62338;SDS011;48368;53.406;6.214;2022-12-13T03:42:23;75.40;;;31.95;;
62338;SDS011;48368;53.406;6.214;2022-12-13T03:44:49;66.60;;;30.38;;
62338;SDS011;48368;53.406;6.214;2022-12-13T03:47:15;61.22;;;24.58;;
62338;SDS011;48368;53.406;6.214;2022-12-13T03:49:41;51.95;;;25.35;;
62338;SDS011;48368;53.406;6.214;2022-12-13T03:52:07;52.55;;;24.45;;
62338;SDS011;48368;53.406;6.214;2022-12-13T03:54:33;44.25;;;21.50;;
62338;SDS011;48368;53.406;6.214;2022-12-13T03:56:58;55.67;;;26.45;;
62338;SDS011;48368;53.406;6.214;2022-12-13T03:59:24;54.80;;;25.67;;
62338;SDS011;48368;53.406;6.214;2022-12-13T04:01:50;66.47;;;30.17;;
62338;SDS011;48368;53.406;6.214;2022-12-13T04:04:16;64.72;;;28.38;;
62338;SDS011;48368;53.406;6.214;2022-12-13T04:06:41;69.40;;;31.88;;
62338;SDS011;48368;53.406;6.214;2022-12-13T04:09:07;69.03;;;32.35;;
62338;SDS011;48368;53.406;6.214;2022-12-13T04:11:33;69.57;;;30.42;;
62338;SDS011;48368;53.406;6.214;2022-12-13T04:14:16;58.80;;;26.48;;
62338;SDS011;48368;53.406;6.214;2022-12-13T04:16:42;67.30;;;29.92;;
62338;SDS011;48368;53.406;6.214;2022-12-13T04:19:08;56.20;;;25.48;;
62338;SDS011;48368;53.406;6.214;2022-12-13T04:21:33;58.10;;;25.20;;
62338;SDS011;48368;53.406;6.214;2022-12-13T04:23:59;48.83;;;24.60;;
62338;SDS011;48368;53.406;6.214;2022-12-13T04:26:25;55.78;;;24.13;;
62338;SDS011;48368;53.406;6.214;2022-12-13T04:28:50;49.97;;;24.13;;
62338;SDS011;48368;53.406;6.214;2022-12-13T04:31:16;53.53;;;25.13;;
62338;SDS011;48368;53.406;6.214;2022-12-13T04:33:41;53.60;;;24.52;;
62338;SDS011;48368;53.406;6.214;2022-12-13T04:36:07;53.30;;;24.33;;
62338;SDS011;48368;53.406;6.214;2022-12-13T04:38:32;44.92;;;23.75;;
62338;SDS011;48368;53.406;6.214;2022-12-13T04:41:05;50.58;;;23.48;;
62338;SDS011;48368;53.406;6.214;2022-12-13T04:43:32;49.45;;;23.30;;
62338;SDS011;48368;53.406;6.214;2022-12-13T04:45:58;50.95;;;22.33;;
62338;SDS011;48368;53.406;6.214;2022-12-13T04:48:24;50.63;;;21.92;;
62338;SDS011;48368;53.406;6.214;2022-12-13T04:50:49;45.58;;;23.00;;
62338;SDS011;48368;53.406;6.214;2022-12-13T04:53:15;48.78;;;22.63;;
62338;SDS011;48368;53.406;6.214;2022-12-13T04:55:40;52.53;;;25.95;;
62338;SDS011;48368;53.406;6.214;2022-12-13T04:58:06;47.75;;;22.92;;
62338;SDS011;48368;53.406;6.214;2022-12-13T05:00:32;48.38;;;23.10;;
62338;SDS011;48368;53.406;6.214;2022-12-13T05:02:57;45.80;;;21.55;;
62338;SDS011;48368;53.406;6.214;2022-12-13T05:05:23;48.80;;;23.55;;
62338;SDS011;48368;53.406;6.214;2022-12-13T05:07:49;47.80;;;23.33;;
62338;SDS011;48368;53.406;6.214;2022-12-13T05:10:14;47.22;;;22.92;;
62338;SDS011;48368;53.406;6.214;2022-12-13T05:12:40;50.53;;;23.48;;
62338;SDS011;48368;53.406;6.214;2022-12-13T05:15:06;47.20;;;23.35;;
62338;SDS011;48368;53.406;6.214;2022-12-13T05:17:32;47.42;;;23.23;;
62338;SDS011;48368;53.406;6.214;2022-12-13T05:19:58;46.50;;;23.45;;
62338;SDS011;48368;53.406;6.214;2022-12-13T05:22:24;50.33;;;23.65;;
62338;SDS011;48368;53.406;6.214;2022-12-13T05:24:50;47.28;;;22.92;;
62338;SDS011;48368;53.406;6.214;2022-12-13T05:27:16;47.15;;;23.25;;
62338;SDS011;48368;53.406;6.214;2022-12-13T05:29:42;47.92;;;23.95;;
62338;SDS011;48368;53.406;6.214;2022-12-13T05:32:08;43.42;;;22.40;;
62338;SDS011;48368;53.406;6.214;2022-12-13T05:34:33;49.60;;;24.50;;
62338;SDS011;48368;53.406;6.214;2022-12-13T05:36:59;49.20;;;23.50;;
62338;SDS011;48368;53.406;6.214;2022-12-13T05:39:25;47.70;;;23.23;;
62338;SDS011;48368;53.406;6.214;2022-12-13T05:41:51;46.10;;;22.50;;
62338;SDS011;48368;53.406;6.214;2022-12-13T05:44:18;42.05;;;21.83;;
62338;SDS011;48368;53.406;6.214;2022-12-13T05:46:44;45.15;;;21.30;;
62338;SDS011;48368;53.406;6.214;2022-12-13T05:49:09;45.85;;;22.77;;
62338;SDS011;48368;53.406;6.214;2022-12-13T05:51:35;45.28;;;22.50;;
62338;SDS011;48368;53.406;6.214;2022-12-13T05:54:00;49.03;;;22.95;;
62338;SDS011;48368;53.406;6.214;2022-12-13T05:56:26;45.10;;;22.88;;
62338;SDS011;48368;53.406;6.214;2022-12-13T05:58:52;47.88;;;23.13;;
62338;SDS011;48368;53.406;6.214;2022-12-13T06:01:18;49.15;;;22.17;;
62338;SDS011;48368;53.406;6.214;2022-12-13T06:03:44;47.25;;;23.88;;
62338;SDS011;48368;53.406;6.214;2022-12-13T06:06:10;39.50;;;21.80;;
62338;SDS011;48368;53.406;6.214;2022-12-13T06:08:36;38.97;;;21.58;;
62338;SDS011;48368;53.406;6.214;2022-12-13T06:11:03;42.33;;;22.90;;
62338;SDS011;48368;53.406;6.214;2022-12-13T06:13:30;48.42;;;22.60;;
62338;SDS011;48368;53.406;6.214;2022-12-13T06:15:59;44.50;;;21.80;;
62338;SDS011;48368;53.406;6.214;2022-12-13T06:18:26;46.13;;;22.20;;
62338;SDS011;48368;53.406;6.214;2022-12-13T06:20:58;44.20;;;22.50;;
62338;SDS011;48368;53.406;6.214;2022-12-13T06:23:26;44.35;;;23.05;;
62338;SDS011;48368;53.406;6.214;2022-12-13T06:25:52;44.90;;;22.13;;
62338;SDS011;48368;53.406;6.214;2022-12-13T06:28:18;50.13;;;24.60;;
62338;SDS011;48368;53.406;6.214;2022-12-13T06:30:44;48.03;;;24.33;;
62338;SDS011;48368;53.406;6.214;2022-12-13T06:33:09;54.25;;;24.65;;
62338;SDS011;48368;53.406;6.214;2022-12-13T06:35:35;48.22;;;23.52;;
62338;SDS011;48368;53.406;6.214;2022-12-13T06:38:01;51.88;;;24.85;;
62338;SDS011;48368;53.406;6.214;2022-12-13T06:40:28;45.38;;;24.40;;
62338;SDS011;48368;53.406;6.214;2022-12-13T06:42:54;41.67;;;23.52;;
62338;SDS011;48368;53.406;6.214;2022-12-13T06:45:20;52.25;;;26.98;;
62338;SDS011;48368;53.406;6.214;2022-12-13T06:47:46;55.03;;;26.85;;
62338;SDS011;48368;53.406;6.214;2022-12-13T06:50:12;52.90;;;24.52;;
62338;SDS011;48368;53.406;6.214;2022-12-13T06:52:38;46.22;;;25.05;;
62338;SDS011;48368;53.406;6.214;2022-12-13T06:55:04;54.90;;;26.63;;
62338;SDS011;48368;53.406;6.214;2022-12-13T06:57:33;49.08;;;25.63;;
62338;SDS011;48368;53.406;6.214;2022-12-13T06:59:59;47.92;;;25.30;;
62338;SDS011;48368;53.406;6.214;2022-12-13T07:02:27;52.00;;;26.90;;
62338;SDS011;48368;53.406;6.214;2022-12-13T07:04:53;46.47;;;26.70;;
62338;SDS011;48368;53.406;6.214;2022-12-13T07:07:19;57.88;;;28.55;;
62338;SDS011;48368;53.406;6.214;2022-12-13T07:09:44;53.63;;;27.58;;
62338;SDS011;48368;53.406;6.214;2022-12-13T07:12:10;51.03;;;25.73;;
62338;SDS011;48368;53.406;6.214;2022-12-13T07:14:36;49.47;;;26.38;;
62338;SDS011;48368;53.406;6.214;2022-12-13T07:17:01;53.60;;;26.73;;
62338;SDS011;48368;53.406;6.214;2022-12-13T07:19:27;50.95;;;25.83;;
62338;SDS011;48368;53.406;6.214;2022-12-13T07:21:53;49.08;;;25.85;;
62338;SDS011;48368;53.406;6.214;2022-12-13T07:24:18;44.22;;;23.30;;
62338;SDS011;48368;53.406;6.214;2022-12-13T07:26:45;43.38;;;24.92;;
62338;SDS011;48368;53.406;6.214;2022-12-13T07:29:11;48.08;;;26.27;;
62338;SDS011;48368;53.406;6.214;2022-12-13T07:31:36;47.00;;;24.42;;
62338;SDS011;48368;53.406;6.214;2022-12-13T07:34:02;49.45;;;25.40;;
62338;SDS011;48368;53.406;6.214;2022-12-13T07:36:28;56.15;;;27.13;;
62338;SDS011;48368;53.406;6.214;2022-12-13T07:38:54;98.90;;;43.08;;
62338;SDS011;48368;53.406;6.214;2022-12-13T07:41:21;57.38;;;27.20;;
62338;SDS011;48368;53.406;6.214;2022-12-13T07:43:48;60.63;;;28.95;;
62338;SDS011;48368;53.406;6.214;2022-12-13T07:46:13;53.25;;;28.27;;
62338;SDS011;48368;53.406;6.214;2022-12-13T07:48:39;67.97;;;36.97;;
62338;SDS011;48368;53.406;6.214;2022-12-13T07:51:07;53.50;;;28.17;;
62338;SDS011;48368;53.406;6.214;2022-12-13T07:53:38;57.78;;;28.73;;
62338;SDS011;48368;53.406;6.214;2022-12-13T07:56:05;54.20;;;27.75;;
62338;SDS011;48368;53.406;6.214;2022-12-13T07:58:32;53.35;;;29.45;;
62338;SDS011;48368;53.406;6.214;2022-12-13T08:00:58;87.40;;;39.53;;
62338;SDS011;48368;53.406;6.214;2022-12-13T08:03:26;103.95;;;42.97;;
62338;SDS011;48368;53.406;6.214;2022-12-13T08:08:44;84.88;;;38.42;;
62338;SDS011;48368;53.406;6.214;2022-12-13T08:11:11;68.93;;;33.95;;
62338;SDS011;48368;53.406;6.214;2022-12-13T08:13:39;69.22;;;37.05;;
62338;SDS011;48368;53.406;6.214;2022-12-13T08:16:06;65.85;;;34.20;;
62338;SDS011;48368;53.406;6.214;2022-12-13T08:18:33;48.83;;;25.77;;
62338;SDS011;48368;53.406;6.214;2022-12-13T08:20:59;48.78;;;26.25;;
62338;SDS011;48368;53.406;6.214;2022-12-13T08:23:26;44.45;;;25.55;;
62338;SDS011;48368;53.406;6.214;2022-12-13T08:25:53;47.72;;;25.17;;
62338;SDS011;48368;53.406;6.214;2022-12-13T08:28:19;50.28;;;24.75;;
62338;SDS011;48368;53.406;6.214;2022-12-13T08:30:46;47.50;;;25.75;;
62338;SDS011;48368;53.406;6.214;2022-12-13T08:33:13;45.88;;;24.25;;
62338;SDS011;48368;53.406;6.214;2022-12-13T08:35:39;52.35;;;25.75;;
62338;SDS011;48368;53.406;6.214;2022-12-13T08:38:04;45.00;;;25.65;;
62338;SDS011;48368;53.406;6.214;2022-12-13T08:40:30;48.58;;;26.15;;
62338;SDS011;48368;53.406;6.214;2022-12-13T08:42:56;50.63;;;25.10;;
62338;SDS011;48368;53.406;6.214;2022-12-13T08:45:22;53.30;;;26.05;;
62338;SDS011;48368;53.406;6.214;2022-12-13T08:47:48;53.35;;;25.95;;
62338;SDS011;48368;53.406;6.214;2022-12-13T08:50:14;52.60;;;27.17;;
62338;SDS011;48368;53.406;6.214;2022-12-13T08:52:40;52.75;;;25.50;;
62338;SDS011;48368;53.406;6.214;2022-12-13T08:55:08;54.28;;;27.50;;
62338;SDS011;48368;53.406;6.214;2022-12-13T08:57:35;52.50;;;28.23;;
62338;SDS011;48368;53.406;6.214;2022-12-13T09:00:05;50.05;;;27.67;;
62338;SDS011;48368;53.406;6.214;2022-12-13T09:02:32;48.33;;;25.73;;
62338;SDS011;48368;53.406;6.214;2022-12-13T09:04:58;58.35;;;28.15;;
62338;SDS011;48368;53.406;6.214;2022-12-13T09:07:23;59.83;;;28.23;;
62338;SDS011;48368;53.406;6.214;2022-12-13T09:09:49;55.55;;;26.80;;
62338;SDS011;48368;53.406;6.214;2022-12-13T09:12:14;53.97;;;26.92;;
62338;SDS011;48368;53.406;6.214;2022-12-13T09:14:40;50.60;;;26.73;;
62338;SDS011;48368;53.406;6.214;2022-12-13T09:17:06;64.50;;;30.63;;
62338;SDS011;48368;53.406;6.214;2022-12-13T09:19:32;64.53;;;31.27;;
62338;SDS011;48368;53.406;6.214;2022-12-13T09:21:57;57.80;;;29.60;;
62338;SDS011;48368;53.406;6.214;2022-12-13T09:24:23;55.40;;;28.58;;
62338;SDS011;48368;53.406;6.214;2022-12-13T09:26:50;57.70;;;29.00;;
62338;SDS011;48368;53.406;6.214;2022-12-13T09:29:15;55.10;;;28.85;;
62338;SDS011;48368;53.406;6.214;2022-12-13T09:31:41;59.42;;;30.00;;
62338;SDS011;48368;53.406;6.214;2022-12-13T09:34:08;58.85;;;28.38;;
62338;SDS011;48368;53.406;6.214;2022-12-13T09:36:34;54.50;;;29.75;;
62338;SDS011;48368;53.406;6.214;2022-12-13T09:39:00;65.50;;;28.70;;
62338;SDS011;48368;53.406;6.214;2022-12-13T09:46:39;50.88;;;27.73;;
62338;SDS011;48368;53.406;6.214;2022-12-13T09:49:13;52.35;;;27.70;;
62338;SDS011;48368;53.406;6.214;2022-12-13T09:51:56;59.72;;;29.52;;
62338;SDS011;48368;53.406;6.214;2022-12-13T09:54:24;57.50;;;29.23;;
62338;SDS011;48368;53.406;6.214;2022-12-13T09:56:50;53.28;;;27.88;;
62338;SDS011;48368;53.406;6.214;2022-12-13T09:59:20;54.85;;;28.40;;
62338;SDS011;48368;53.406;6.214;2022-12-13T10:01:53;52.25;;;28.35;;
62338;SDS011;48368;53.406;6.214;2022-12-13T10:04:20;57.30;;;30.33;;
62338;SDS011;48368;53.406;6.214;2022-12-13T10:06:46;63.20;;;28.95;;
62338;SDS011;48368;53.406;6.214;2022-12-13T10:09:17;52.50;;;28.98;;
62338;SDS011;48368;53.406;6.214;2022-12-13T10:11:47;69.50;;;30.35;;
62338;SDS011;48368;53.406;6.214;2022-12-13T10:14:19;54.08;;;29.15;;
62338;SDS011;48368;53.406;6.214;2022-12-13T10:17:07;56.65;;;28.58;;
62338;SDS011;48368;53.406;6.214;2022-12-13T10:19:39;57.17;;;31.48;;
62338;SDS011;48368;53.406;6.214;2022-12-13T10:22:07;56.38;;;28.85;;
62338;SDS011;48368;53.406;6.214;2022-12-13T10:24:53;59.20;;;29.45;;
62338;SDS011;48368;53.406;6.214;2022-12-13T10:27:39;51.65;;;28.33;;
62338;SDS011;48368;53.406;6.214;2022-12-13T10:30:16;53.17;;;28.50;;
62338;SDS011;48368;53.406;6.214;2022-12-13T10:32:57;56.05;;;29.27;;
62338;SDS011;48368;53.406;6.214;2022-12-13T10:38:01;59.90;;;29.60;;
62338;SDS011;48368;53.406;6.214;2022-12-13T10:40:35;57.55;;;30.50;;
62338;SDS011;48368;53.406;6.214;2022-12-13T10:43:18;68.40;;;28.45;;
62338;SDS011;48368;53.406;6.214;2022-12-13T10:48:21;55.90;;;28.60;;
62338;SDS011;48368;53.406;6.214;2022-12-13T10:50:58;51.67;;;28.50;;
62338;SDS011;48368;53.406;6.214;2022-12-13T10:56:20;56.90;;;29.67;;
62338;SDS011;48368;53.406;6.214;2022-12-13T10:58:47;56.55;;;28.02;;
62338;SDS011;48368;53.406;6.214;2022-12-13T11:03:58;47.17;;;26.17;;
62338;SDS011;48368;53.406;6.214;2022-12-13T11:06:44;48.58;;;27.05;;
62338;SDS011;48368;53.406;6.214;2022-12-13T11:09:24;46.13;;;24.30;;
62338;SDS011;48368;53.406;6.214;2022-12-13T11:11:50;52.22;;;28.02;;
62338;SDS011;48368;53.406;6.214;2022-12-13T11:14:18;47.30;;;26.33;;
62338;SDS011;48368;53.406;6.214;2022-12-13T11:16:49;48.78;;;27.17;;
62338;SDS011;48368;53.406;6.214;2022-12-13T11:19:19;50.08;;;27.48;;
62338;SDS011;48368;53.406;6.214;2022-12-13T11:21:48;45.10;;;25.17;;
62338;SDS011;48368;53.406;6.214;2022-12-13T11:24:17;44.88;;;24.83;;
62338;SDS011;48368;53.406;6.214;2022-12-13T11:26:48;44.90;;;24.23;;
62338;SDS011;48368;53.406;6.214;2022-12-13T11:29:33;50.60;;;25.40;;
62338;SDS011;48368;53.406;6.214;2022-12-13T11:35:24;48.65;;;26.10;;
62338;SDS011;48368;53.406;6.214;2022-12-13T11:40:41;50.67;;;26.83;;
62338;SDS011;48368;53.406;6.214;2022-12-13T11:45:48;45.50;;;26.02;;
62338;SDS011;48368;53.406;6.214;2022-12-13T11:50:49;43.45;;;24.45;;
62338;SDS011;48368;53.406;6.214;2022-12-13T11:53:21;48.42;;;28.05;;
62338;SDS011;48368;53.406;6.214;2022-12-13T11:56:03;44.90;;;26.05;;
62338;SDS011;48368;53.406;6.214;2022-12-13T11:58:41;57.72;;;28.13;;
62338;SDS011;48368;53.406;6.214;2022-12-13T12:04:18;44.78;;;25.33;;
62338;SDS011;48368;53.406;6.214;2022-12-13T12:13:06;51.92;;;29.08;;
62338;SDS011;48368;53.406;6.214;2022-12-13T12:15:42;56.15;;;31.13;;
62338;SDS011;48368;53.406;6.214;2022-12-13T12:18:14;44.30;;;26.17;;
62338;SDS011;48368;53.406;6.214;2022-12-13T12:20:54;40.65;;;23.48;;
62338;SDS011;48368;53.406;6.214;2022-12-13T12:23:36;46.90;;;26.67;;
62338;SDS011;48368;53.406;6.214;2022-12-13T12:26:12;39.92;;;23.10;;
62338;SDS011;48368;53.406;6.214;2022-12-13T12:28:54;39.58;;;22.85;;
62338;SDS011;48368;53.406;6.214;2022-12-13T12:31:44;42.63;;;24.27;;
62338;SDS011;48368;53.406;6.214;2022-12-13T12:39:42;41.03;;;23.95;;
62338;SDS011;48368;53.406;6.214;2022-12-13T12:45:09;35.50;;;21.38;;
62338;SDS011;48368;53.406;6.214;2022-12-13T12:50:52;37.42;;;19.67;;
62338;SDS011;48368;53.406;6.214;2022-12-13T12:53:27;32.90;;;18.52;;
62338;SDS011;48368;53.406;6.214;2022-12-13T13:04:03;31.38;;;16.85;;
62338;SDS011;48368;53.406;6.214;2022-12-13T13:06:37;29.75;;;16.38;;
62338;SDS011;48368;53.406;6.214;2022-12-13T13:09:07;36.25;;;16.70;;
62338;SDS011;48368;53.406;6.214;2022-12-13T13:11:37;35.22;;;17.42;;
62338;SDS011;48368;53.406;6.214;2022-12-13T13:16:57;30.05;;;16.83;;
62338;SDS011;48368;53.406;6.214;2022-12-13T13:21:56;31.17;;;16.20;;
62338;SDS011;48368;53.406;6.214;2022-12-13T13:24:26;30.95;;;17.30;;
62338;SDS011;48368;53.406;6.214;2022-12-13T13:29:36;31.13;;;17.52;;
62338;SDS011;48368;53.406;6.214;2022-12-13T13:34:42;32.67;;;17.50;;
62338;SDS011;48368;53.406;6.214;2022-12-13T13:56:09;28.65;;;15.52;;
62338;SDS011;48368;53.406;6.214;2022-12-13T14:01:31;29.10;;;14.82;;
62338;SDS011;48368;53.406;6.214;2022-12-13T14:12:36;26.38;;;14.50;;
62338;SDS011;48368;53.406;6.214;2022-12-13T14:15:43;28.13;;;14.52;;
62338;SDS011;48368;53.406;6.214;2022-12-13T14:24:26;32.80;;;15.60;;
62338;SDS011;48368;53.406;6.214;2022-12-13T14:27:14;29.95;;;15.27;;
62338;SDS011;48368;53.406;6.214;2022-12-13T14:30:01;32.40;;;16.15;;
62338;SDS011;48368;53.406;6.214;2022-12-13T14:32:28;30.48;;;15.57;;
62338;SDS011;48368;53.406;6.214;2022-12-13T14:34:57;35.65;;;17.38;;
62338;SDS011;48368;53.406;6.214;2022-12-13T14:42:30;33.95;;;17.60;;
62338;SDS011;48368;53.406;6.214;2022-12-13T14:45:14;34.85;;;17.42;;
62338;SDS011;48368;53.406;6.214;2022-12-13T14:47:47;34.85;;;18.50;;
62338;SDS011;48368;53.406;6.214;2022-12-13T14:50:15;38.63;;;18.80;;
62338;SDS011;48368;53.406;6.214;2022-12-13T14:52:44;38.30;;;18.40;;
62338;SDS011;48368;53.406;6.214;2022-12-13T14:55:20;34.75;;;18.23;;
62338;SDS011;48368;53.406;6.214;2022-12-13T14:57:53;40.58;;;19.33;;
62338;SDS011;48368;53.406;6.214;2022-12-13T15:00:21;33.72;;;17.75;;
62338;SDS011;48368;53.406;6.214;2022-12-13T15:02:55;37.90;;;19.40;;
62338;SDS011;48368;53.406;6.214;2022-12-13T15:05:25;37.25;;;18.73;;
62338;SDS011;48368;53.406;6.214;2022-12-13T15:07:56;35.42;;;19.38;;
62338;SDS011;48368;53.406;6.214;2022-12-13T15:10:38;38.53;;;19.73;;
62338;SDS011;48368;53.406;6.214;2022-12-13T15:13:14;36.20;;;19.23;;
62338;SDS011;48368;53.406;6.214;2022-12-13T15:15:58;39.95;;;19.35;;
62338;SDS011;48368;53.406;6.214;2022-12-13T15:18:26;42.92;;;21.08;;
62338;SDS011;48368;53.406;6.214;2022-12-13T15:20:54;43.55;;;20.67;;
62338;SDS011;48368;53.406;6.214;2022-12-13T15:23:36;42.63;;;21.05;;
62338;SDS011;48368;53.406;6.214;2022-12-13T15:26:10;41.83;;;20.77;;
62338;SDS011;48368;53.406;6.214;2022-12-13T15:28:39;37.35;;;20.35;;
62338;SDS011;48368;53.406;6.214;2022-12-13T15:31:08;40.58;;;21.75;;
62338;SDS011;48368;53.406;6.214;2022-12-13T15:33:34;42.95;;;21.60;;
62338;SDS011;48368;53.406;6.214;2022-12-13T15:41:19;36.35;;;21.02;;
62338;SDS011;48368;53.406;6.214;2022-12-13T15:43:57;42.70;;;22.88;;
62338;SDS011;48368;53.406;6.214;2022-12-13T15:46:28;40.08;;;20.70;;
62338;SDS011;48368;53.406;6.214;2022-12-13T15:48:56;45.08;;;21.88;;
62338;SDS011;48368;53.406;6.214;2022-12-13T15:51:24;45.08;;;23.15;;
62338;SDS011;48368;53.406;6.214;2022-12-13T15:54:00;46.03;;;22.45;;
62338;SDS011;48368;53.406;6.214;2022-12-13T15:59:39;44.63;;;23.45;;
62338;SDS011;48368;53.406;6.214;2022-12-13T16:02:24;43.47;;;22.60;;
62338;SDS011;48368;53.406;6.214;2022-12-13T16:04:52;43.05;;;21.45;;
62338;SDS011;48368;53.406;6.214;2022-12-13T16:07:22;49.20;;;23.08;;
62338;SDS011;48368;53.406;6.214;2022-12-13T16:09:52;46.33;;;21.42;;
62338;SDS011;48368;53.406;6.214;2022-12-13T16:12:23;43.08;;;21.60;;
62338;SDS011;48368;53.406;6.214;2022-12-13T16:15:04;52.20;;;24.15;;
62338;SDS011;48368;53.406;6.214;2022-12-13T16:17:38;50.90;;;23.73;;
62338;SDS011;48368;53.406;6.214;2022-12-13T16:20:07;48.95;;;23.17;;
62338;SDS011;48368;53.406;6.214;2022-12-13T16:22:37;50.30;;;23.55;;
62338;SDS011;48368;53.406;6.214;2022-12-13T16:25:03;43.00;;;23.35;;
62338;SDS011;48368;53.406;6.214;2022-12-13T16:27:29;41.92;;;22.02;;
62338;SDS011;48368;53.406;6.214;2022-12-13T16:29:55;41.95;;;22.23;;
62338;SDS011;48368;53.406;6.214;2022-12-13T16:32:20;47.45;;;24.15;;
62338;SDS011;48368;53.406;6.214;2022-12-13T16:34:46;45.88;;;24.05;;
62338;SDS011;48368;53.406;6.214;2022-12-13T16:37:12;48.38;;;24.48;;
62338;SDS011;48368;53.406;6.214;2022-12-13T16:39:37;51.58;;;23.80;;
62338;SDS011;48368;53.406;6.214;2022-12-13T16:42:03;55.08;;;25.60;;
62338;SDS011;48368;53.406;6.214;2022-12-13T16:44:36;46.65;;;23.63;;
62338;SDS011;48368;53.406;6.214;2022-12-13T16:47:07;51.65;;;24.40;;
62338;SDS011;48368;53.406;6.214;2022-12-13T16:49:33;45.60;;;22.98;;
62338;SDS011;48368;53.406;6.214;2022-12-13T16:51:59;51.53;;;24.98;;
62338;SDS011;48368;53.406;6.214;2022-12-13T16:54:26;49.92;;;25.05;;
62338;SDS011;48368;53.406;6.214;2022-12-13T16:56:52;49.17;;;24.17;;
62338;SDS011;48368;53.406;6.214;2022-12-13T16:59:20;58.85;;;26.42;;